createdAt,value
2018-07-19T00:00:24.712Z,1020.59
2018-07-19T00:00:50.288Z,1020.62
2018-07-19T00:01:15.869Z,1020.59
2018-07-19T00:01:41.433Z,1020.62
2018-07-19T00:02:06.991Z,1020.65
2018-07-19T00:02:32.564Z,1020.65
2018-07-19T00:02:58.124Z,1020.61
2018-07-19T00:03:23.700Z,1020.61
2018-07-19T00:03:49.292Z,1020.6
2018-07-19T00:04:14.863Z,1020.63
2018-07-19T00:04:40.449Z,1020.68
2018-07-19T00:05:06.041Z,1020.66
2018-07-19T00:05:31.603Z,1020.64
2018-07-19T00:05:57.190Z,1020.64
2018-07-19T00:06:22.759Z,1020.66
2018-07-19T00:06:48.309Z,1020.67
2018-07-19T00:07:13.891Z,1020.66
2018-07-19T00:07:39.464Z,1020.66
2018-07-19T00:08:05.030Z,1020.69
2018-07-19T00:08:30.572Z,1020.69
2018-07-19T00:08:56.146Z,1020.69
2018-07-19T00:09:21.712Z,1020.66
2018-07-19T00:09:47.286Z,1020.71
2018-07-19T00:10:12.851Z,1020.69
2018-07-19T00:10:38.406Z,1020.7
2018-07-19T00:11:03.978Z,1020.71
2018-07-19T00:11:29.563Z,1020.68
2018-07-19T00:11:55.136Z,1020.71
2018-07-19T00:12:20.697Z,1020.7
2018-07-19T00:12:46.255Z,1020.69
2018-07-19T00:13:11.809Z,1020.72
2018-07-19T00:13:37.397Z,1020.68
2018-07-19T00:14:02.951Z,1020.7
2018-07-19T00:14:28.513Z,1020.69
2018-07-19T00:14:54.081Z,1020.68
2018-07-19T00:15:19.631Z,1020.69
2018-07-19T00:15:45.213Z,1020.65
2018-07-19T00:16:10.886Z,1020.65
2018-07-19T00:16:36.436Z,1020.62
2018-07-19T00:17:02.001Z,1020.65
2018-07-19T00:17:27.553Z,1020.67
2018-07-19T00:17:53.138Z,1020.61
2018-07-19T00:18:18.703Z,1020.63
2018-07-19T00:18:44.273Z,1020.59
2018-07-19T00:19:09.845Z,1020.61
2018-07-19T00:19:35.412Z,1020.62
2018-07-19T00:20:00.972Z,1020.62
2018-07-19T00:20:26.553Z,1020.63
2018-07-19T00:20:52.140Z,1020.62
2018-07-19T00:21:17.697Z,1020.62
2018-07-19T00:21:43.274Z,1020.59
2018-07-19T00:22:08.831Z,1020.6
2018-07-19T00:22:34.425Z,1020.56
2018-07-19T00:22:59.965Z,1020.58
2018-07-19T00:23:25.547Z,1020.57
2018-07-19T00:23:51.094Z,1020.57
2018-07-19T00:24:16.669Z,1020.56
2018-07-19T00:24:42.242Z,1020.54
2018-07-19T00:25:07.847Z,1020.56
2018-07-19T00:25:33.417Z,1020.57
2018-07-19T00:25:58.981Z,1020.59
2018-07-19T00:26:24.545Z,1020.57
2018-07-19T00:26:50.109Z,1020.61
2018-07-19T00:27:15.662Z,1020.6
2018-07-19T00:27:41.246Z,1020.59
2018-07-19T00:28:06.795Z,1020.59
2018-07-19T00:28:32.370Z,1020.62
2018-07-19T00:28:57.934Z,1020.59
2018-07-19T00:29:23.526Z,1020.59
2018-07-19T00:29:49.111Z,1020.59
2018-07-19T00:30:14.675Z,1020.62
2018-07-19T00:30:40.244Z,1020.6
2018-07-19T00:31:05.823Z,1020.62
2018-07-19T00:31:31.399Z,1020.6
2018-07-19T00:31:56.972Z,1020.63
2018-07-19T00:32:22.543Z,1020.64
2018-07-19T00:32:48.120Z,1020.63
2018-07-19T00:33:13.676Z,1020.64
2018-07-19T00:33:39.230Z,1020.67
2018-07-19T00:34:04.809Z,1020.61
2018-07-19T00:34:30.372Z,1020.61
2018-07-19T00:34:55.933Z,1020.63
2018-07-19T00:35:21.476Z,1020.62
2018-07-19T00:35:47.040Z,1020.62
2018-07-19T00:36:12.635Z,1020.61
2018-07-19T00:36:38.186Z,1020.68
2018-07-19T00:37:03.778Z,1020.64
2018-07-19T00:37:29.328Z,1020.65
2018-07-19T00:37:54.905Z,1020.66
2018-07-19T00:38:20.496Z,1020.68
2018-07-19T00:38:46.069Z,1020.64
2018-07-19T00:40:05.936Z,1020.65
2018-07-19T00:40:31.501Z,1020.66
2018-07-19T00:40:57.049Z,1020.65
2018-07-19T00:41:22.636Z,1020.66
2018-07-19T00:41:48.216Z,1020.67
2018-07-19T00:42:13.796Z,1020.66
2018-07-19T00:42:39.399Z,1020.7
2018-07-19T00:43:04.979Z,1020.68
2018-07-19T00:43:30.504Z,1020.67
2018-07-19T00:43:56.070Z,1020.65
2018-07-19T00:44:21.618Z,1020.69
2018-07-19T00:44:47.202Z,1020.67
2018-07-19T00:45:12.765Z,1020.65
2018-07-19T00:45:38.323Z,1020.65
2018-07-19T00:46:03.889Z,1020.66
2018-07-19T00:46:29.441Z,1020.65
2018-07-19T00:46:54.998Z,1020.63
2018-07-19T00:47:20.581Z,1020.62
2018-07-19T00:47:46.164Z,1020.59
2018-07-19T00:48:11.710Z,1020.6
2018-07-19T00:48:37.369Z,1020.6
2018-07-19T00:49:02.964Z,1020.61
2018-07-19T00:49:28.521Z,1020.57
2018-07-19T00:49:54.088Z,1020.55
2018-07-19T00:50:19.666Z,1020.56
2018-07-19T00:50:45.221Z,1020.57
2018-07-19T00:51:10.790Z,1020.58
2018-07-19T00:51:36.371Z,1020.58
2018-07-19T00:52:01.936Z,1020.6
2018-07-19T00:52:27.493Z,1020.56
2018-07-19T00:52:53.065Z,1020.57
2018-07-19T00:53:18.678Z,1020.57
2018-07-19T00:53:44.230Z,1020.58
2018-07-19T00:54:09.783Z,1020.61
2018-07-19T00:54:35.364Z,1020.56
2018-07-19T00:55:00.939Z,1020.6
2018-07-19T00:55:26.523Z,1020.56
2018-07-19T00:55:52.070Z,1020.58
2018-07-19T00:56:17.630Z,1020.54
2018-07-19T00:56:43.177Z,1020.58
2018-07-19T00:57:08.742Z,1020.56
2018-07-19T00:57:34.307Z,1020.59
2018-07-19T00:57:59.884Z,1020.59
2018-07-19T00:58:25.478Z,1020.6
2018-07-19T00:58:51.067Z,1020.6
2018-07-19T00:59:16.633Z,1020.62
2018-07-19T00:59:42.200Z,1020.6
2018-07-19T01:00:07.777Z,1020.55
2018-07-19T01:00:33.349Z,1020.55
2018-07-19T01:00:58.928Z,1020.54
2018-07-19T01:01:24.480Z,1020.59
2018-07-19T01:01:50.088Z,1020.57
2018-07-19T01:02:15.651Z,1020.52
2018-07-19T01:02:41.212Z,1020.54
2018-07-19T01:03:06.777Z,1020.57
2018-07-19T01:03:32.351Z,1020.54
2018-07-19T01:03:57.913Z,1020.56
2018-07-19T01:04:23.501Z,1020.59
2018-07-19T01:04:49.069Z,1020.58
2018-07-19T01:05:14.654Z,1020.59
2018-07-19T01:05:40.218Z,1020.58
2018-07-19T01:06:05.781Z,1020.58
2018-07-19T01:06:31.337Z,1020.54
2018-07-19T01:06:56.897Z,1020.57
2018-07-19T01:07:22.471Z,1020.57
2018-07-19T01:07:48.021Z,1020.5
2018-07-19T01:08:13.587Z,1020.51
2018-07-19T01:08:39.165Z,1020.56
2018-07-19T01:09:04.768Z,1020.56
2018-07-19T01:09:30.348Z,1020.53
2018-07-19T01:09:55.912Z,1020.55
2018-07-19T01:10:21.464Z,1020.53
2018-07-19T01:10:47.062Z,1020.55
2018-07-19T01:11:12.615Z,1020.52
2018-07-19T01:11:38.183Z,1020.56
2018-07-19T01:12:03.748Z,1020.54
2018-07-19T01:12:29.308Z,1020.55
2018-07-19T01:12:54.864Z,1020.56
2018-07-19T01:13:20.416Z,1020.54
2018-07-19T01:13:46.054Z,1020.55
2018-07-19T01:14:11.622Z,1020.58
2018-07-19T01:14:37.214Z,1020.56
2018-07-19T01:15:02.785Z,1020.56
2018-07-19T01:15:28.372Z,1020.57
2018-07-19T01:15:53.962Z,1020.57
2018-07-19T01:16:19.528Z,1020.53
2018-07-19T01:16:45.083Z,1020.54
2018-07-19T01:17:10.660Z,1020.5
2018-07-19T01:17:36.214Z,1020.5
2018-07-19T01:18:01.763Z,1020.51
2018-07-19T01:18:27.331Z,1020.5
2018-07-19T01:18:52.902Z,1020.48
2018-07-19T01:19:18.452Z,1020.46
2018-07-19T01:19:44.030Z,1020.51
2018-07-19T01:20:09.594Z,1020.46
2018-07-19T01:20:35.158Z,1020.45
2018-07-19T01:21:00.754Z,1020.46
2018-07-19T01:21:26.360Z,1020.51
2018-07-19T01:21:51.935Z,1020.53
2018-07-19T01:22:17.503Z,1020.45
2018-07-19T01:22:43.078Z,1020.47
2018-07-19T01:23:08.642Z,1020.45
2018-07-19T01:23:34.215Z,1020.5
2018-07-19T01:23:59.811Z,1020.45
2018-07-19T01:24:25.374Z,1020.47
2018-07-19T01:24:50.949Z,1020.49
2018-07-19T01:25:16.494Z,1020.49
2018-07-19T01:25:42.066Z,1020.48
2018-07-19T01:26:07.670Z,1020.46
2018-07-19T01:26:33.231Z,1020.5
2018-07-19T01:26:58.792Z,1020.44
2018-07-19T01:27:24.378Z,1020.45
2018-07-19T01:27:49.952Z,1020.49
2018-07-19T01:28:15.536Z,1020.49
2018-07-19T01:28:41.098Z,1020.48
2018-07-19T01:29:06.686Z,1020.48
2018-07-19T01:29:32.246Z,1020.48
2018-07-19T01:29:57.798Z,1020.51
2018-07-19T01:30:23.357Z,1020.44
2018-07-19T01:30:48.930Z,1020.51
2018-07-19T01:31:14.478Z,1020.48
2018-07-19T01:31:40.050Z,1020.49
2018-07-19T01:32:05.617Z,1020.5
2018-07-19T01:32:31.168Z,1020.46
2018-07-19T01:32:56.748Z,1020.47
2018-07-19T01:33:22.342Z,1020.47
2018-07-19T01:33:47.941Z,1020.5
2018-07-19T01:34:13.503Z,1020.52
2018-07-19T01:34:39.072Z,1020.5
2018-07-19T01:35:04.654Z,1020.51
2018-07-19T01:35:30.236Z,1020.45
2018-07-19T01:35:55.798Z,1020.46
2018-07-19T01:36:21.361Z,1020.47
2018-07-19T01:36:46.944Z,1020.46
2018-07-19T01:37:12.552Z,1020.51
2018-07-19T01:37:38.170Z,1020.43
2018-07-19T01:38:03.742Z,1020.47
2018-07-19T01:38:29.318Z,1020.5
2018-07-19T01:38:54.874Z,1020.47
2018-07-19T01:39:20.466Z,1020.48
2018-07-19T01:39:46.042Z,1020.44
2018-07-19T01:40:11.617Z,1020.45
2018-07-19T01:40:37.183Z,1020.46
2018-07-19T01:41:02.768Z,1020.47
2018-07-19T01:41:28.340Z,1020.48
2018-07-19T01:41:53.921Z,1020.51
2018-07-19T01:42:19.472Z,1020.46
2018-07-19T01:42:45.069Z,1020.47
2018-07-19T01:43:10.636Z,1020.47
2018-07-19T01:43:36.212Z,1020.49
2018-07-19T01:44:01.774Z,1020.45
2018-07-19T01:44:27.334Z,1020.49
2018-07-19T01:44:52.906Z,1020.52
2018-07-19T01:45:18.456Z,1020.52
2018-07-19T01:45:44.021Z,1020.51
2018-07-19T01:46:09.576Z,1020.49
2018-07-19T01:46:35.138Z,1020.52
2018-07-19T01:47:00.715Z,1020.54
2018-07-19T01:47:26.271Z,1020.53
2018-07-19T01:47:51.856Z,1020.54
2018-07-19T01:48:17.417Z,1020.52
2018-07-19T01:48:42.969Z,1020.53
2018-07-19T01:49:08.539Z,1020.53
2018-07-19T01:49:34.122Z,1020.51
2018-07-19T01:49:59.718Z,1020.53
2018-07-19T01:50:25.290Z,1020.56
2018-07-19T01:50:50.854Z,1020.52
2018-07-19T01:51:16.417Z,1020.49
2018-07-19T01:51:41.976Z,1020.52
2018-07-19T01:52:07.547Z,1020.51
2018-07-19T01:52:33.125Z,1020.54
2018-07-19T01:52:58.664Z,1020.49
2018-07-19T01:53:24.231Z,1020.53
2018-07-19T01:53:49.796Z,1020.53
2018-07-19T01:54:15.354Z,1020.49
2018-07-19T01:54:40.933Z,1020.49
2018-07-19T01:55:06.513Z,1020.49
2018-07-19T01:55:32.081Z,1020.51
2018-07-19T01:55:57.638Z,1020.45
2018-07-19T01:56:23.223Z,1020.47
2018-07-19T01:56:48.793Z,1020.51
2018-07-19T01:57:14.371Z,1020.48
2018-07-19T01:57:39.951Z,1020.5
2018-07-19T01:58:05.515Z,1020.46
2018-07-19T01:58:31.081Z,1020.46
2018-07-19T01:58:56.657Z,1020.5
2018-07-19T01:59:22.240Z,1020.47
2018-07-19T01:59:47.833Z,1020.47
2018-07-19T02:00:13.477Z,1020.44
2018-07-19T02:00:39.016Z,1020.44
2018-07-19T02:01:04.605Z,1020.44
2018-07-19T02:01:30.182Z,1020.41
2018-07-19T02:01:55.740Z,1020.42
2018-07-19T02:02:21.312Z,1020.42
2018-07-19T02:02:46.901Z,1020.43
2018-07-19T02:03:12.461Z,1020.4
2018-07-19T02:03:38.051Z,1020.4
2018-07-19T02:04:03.634Z,1020.4
2018-07-19T02:04:29.213Z,1020.4
2018-07-19T02:04:54.804Z,1020.39
2018-07-19T02:05:20.356Z,1020.36
2018-07-19T02:05:45.924Z,1020.41
2018-07-19T02:06:11.507Z,1020.37
2018-07-19T02:06:37.083Z,1020.43
2018-07-19T02:07:02.654Z,1020.36
2018-07-19T02:07:28.238Z,1020.41
2018-07-19T02:07:53.838Z,1020.4
2018-07-19T02:08:19.381Z,1020.41
2018-07-19T02:08:44.952Z,1020.38
2018-07-19T02:09:10.520Z,1020.41
2018-07-19T02:09:36.110Z,1020.42
2018-07-19T02:10:01.684Z,1020.44
2018-07-19T02:10:27.246Z,1020.42
2018-07-19T02:10:52.809Z,1020.38
2018-07-19T02:11:18.384Z,1020.44
2018-07-19T02:11:43.947Z,1020.44
2018-07-19T02:12:09.526Z,1020.43
2018-07-19T02:12:35.095Z,1020.4
2018-07-19T02:13:00.652Z,1020.45
2018-07-19T02:13:26.227Z,1020.44
2018-07-19T02:13:51.855Z,1020.41
2018-07-19T02:14:17.428Z,1020.42
2018-07-19T02:14:43.003Z,1020.41
2018-07-19T02:15:08.582Z,1020.42
2018-07-19T02:15:34.150Z,1020.44
2018-07-19T02:15:59.705Z,1020.41
2018-07-19T02:16:25.300Z,1020.45
2018-07-19T02:16:50.845Z,1020.42
2018-07-19T02:17:16.404Z,1020.45
2018-07-19T02:17:42.006Z,1020.44
2018-07-19T02:18:07.604Z,1020.42
2018-07-19T02:18:33.210Z,1020.42
2018-07-19T02:18:58.796Z,1020.4
2018-07-19T02:19:24.344Z,1020.42
2018-07-19T02:19:49.921Z,1020.41
2018-07-19T02:20:15.501Z,1020.43
2018-07-19T02:20:41.078Z,1020.44
2018-07-19T02:21:06.631Z,1020.46
2018-07-19T02:21:32.207Z,1020.44
2018-07-19T02:21:57.800Z,1020.42
2018-07-19T02:22:23.377Z,1020.44
2018-07-19T02:22:48.926Z,1020.41
2018-07-19T02:23:14.474Z,1020.41
2018-07-19T02:23:40.042Z,1020.44
2018-07-19T02:24:05.604Z,1020.41
2018-07-19T02:24:31.187Z,1020.45
2018-07-19T02:24:56.784Z,1020.46
2018-07-19T02:25:22.332Z,1020.41
2018-07-19T02:25:47.890Z,1020.43
2018-07-19T02:26:13.451Z,1020.41
2018-07-19T02:26:39.034Z,1020.45
2018-07-19T02:27:04.591Z,1020.42
2018-07-19T02:27:30.171Z,1020.41
2018-07-19T02:27:55.736Z,1020.42
2018-07-19T02:28:21.306Z,1020.4
2018-07-19T02:28:46.874Z,1020.41
2018-07-19T02:29:12.442Z,1020.38
2018-07-19T02:29:38.021Z,1020.4
2018-07-19T02:30:03.586Z,1020.39
2018-07-19T02:30:29.160Z,1020.4
2018-07-19T02:30:54.721Z,1020.39
2018-07-19T02:31:20.285Z,1020.39
2018-07-19T02:31:45.885Z,1020.42
2018-07-19T02:32:11.449Z,1020.43
2018-07-19T02:32:37.034Z,1020.39
2018-07-19T02:33:02.607Z,1020.38
2018-07-19T02:33:28.187Z,1020.45
2018-07-19T02:33:53.770Z,1020.38
2018-07-19T02:34:19.346Z,1020.42
2018-07-19T02:34:44.914Z,1020.39
2018-07-19T02:35:10.490Z,1020.46
2018-07-19T02:35:36.054Z,1020.43
2018-07-19T02:36:01.603Z,1020.44
2018-07-19T02:36:27.192Z,1020.43
2018-07-19T02:36:52.775Z,1020.46
2018-07-19T02:37:18.337Z,1020.43
2018-07-19T02:37:43.905Z,1020.44
2018-07-19T02:38:09.467Z,1020.43
2018-07-19T02:38:35.027Z,1020.42
2018-07-19T02:39:00.602Z,1020.43
2018-07-19T02:39:26.205Z,1020.44
2018-07-19T02:39:51.775Z,1020.41
2018-07-19T02:40:17.325Z,1020.41
2018-07-19T02:40:42.874Z,1020.4
2018-07-19T02:41:08.474Z,1020.37
2018-07-19T02:41:34.084Z,1020.41
2018-07-19T02:41:59.680Z,1020.37
2018-07-19T02:42:25.323Z,1020.37
2018-07-19T02:42:50.878Z,1020.4
2018-07-19T02:43:16.464Z,1020.37
2018-07-19T02:43:42.025Z,1020.4
2018-07-19T02:44:07.595Z,1020.37
2018-07-19T02:44:33.163Z,1020.41
2018-07-19T02:44:58.788Z,1020.38
2018-07-19T02:45:24.365Z,1020.42
2018-07-19T02:45:49.932Z,1020.4
2018-07-19T02:46:15.529Z,1020.37
2018-07-19T02:46:41.093Z,1020.39
2018-07-19T02:47:06.681Z,1020.39
2018-07-19T02:47:32.255Z,1020.39
2018-07-19T02:47:57.848Z,1020.42
2018-07-19T02:48:23.407Z,1020.41
2018-07-19T02:48:48.991Z,1020.43
2018-07-19T02:49:14.584Z,1020.44
2018-07-19T02:49:40.197Z,1020.46
2018-07-19T02:50:05.761Z,1020.42
2018-07-19T02:50:31.313Z,1020.45
2018-07-19T02:50:56.898Z,1020.45
2018-07-19T02:51:22.479Z,1020.43
2018-07-19T02:51:48.025Z,1020.43
2018-07-19T02:52:13.593Z,1020.42
2018-07-19T02:52:39.196Z,1020.41
2018-07-19T02:53:04.806Z,1020.45
2018-07-19T02:53:30.374Z,1020.42
2018-07-19T02:53:55.920Z,1020.44
2018-07-19T02:54:21.483Z,1020.45
2018-07-19T02:54:47.059Z,1020.44
2018-07-19T02:55:12.616Z,1020.46
2018-07-19T02:55:38.194Z,1020.42
2018-07-19T02:56:03.750Z,1020.46
2018-07-19T02:56:29.310Z,1020.45
2018-07-19T02:56:54.910Z,1020.45
2018-07-19T02:57:20.477Z,1020.42
2018-07-19T02:57:46.024Z,1020.45
2018-07-19T02:58:11.601Z,1020.45
2018-07-19T02:58:37.197Z,1020.44
2018-07-19T02:59:02.779Z,1020.5
2018-07-19T02:59:28.370Z,1020.46
2018-07-19T02:59:53.962Z,1020.43
2018-07-19T03:00:19.522Z,1020.47
2018-07-19T03:00:45.103Z,1020.46
2018-07-19T03:01:10.664Z,1020.45
2018-07-19T03:01:36.264Z,1020.51
2018-07-19T03:02:01.920Z,1020.5
2018-07-19T03:02:27.437Z,1020.53
2018-07-19T03:02:53.007Z,1020.52
2018-07-19T03:03:18.571Z,1020.46
2018-07-19T03:03:44.166Z,1020.52
2018-07-19T03:04:09.716Z,1020.49
2018-07-19T03:04:35.287Z,1020.55
2018-07-19T03:05:00.866Z,1020.5
2018-07-19T03:05:26.459Z,1020.47
2018-07-19T03:05:52.061Z,1020.54
2018-07-19T03:06:17.632Z,1020.49
2018-07-19T03:06:43.189Z,1020.52
2018-07-19T03:07:08.760Z,1020.46
2018-07-19T03:07:34.364Z,1020.5
2018-07-19T03:07:59.898Z,1020.51
2018-07-19T03:08:25.461Z,1020.5
2018-07-19T03:08:51.033Z,1020.51
2018-07-19T03:09:16.593Z,1020.5
2018-07-19T03:09:42.193Z,1020.48
2018-07-19T03:10:07.766Z,1020.48
2018-07-19T03:10:33.343Z,1020.48
2018-07-19T03:10:58.907Z,1020.47
2018-07-19T03:11:24.485Z,1020.46
2018-07-19T03:11:50.068Z,1020.48
2018-07-19T03:12:15.645Z,1020.47
2018-07-19T03:12:41.255Z,1020.44
2018-07-19T03:13:06.814Z,1020.53
2018-07-19T03:13:32.385Z,1020.47
2018-07-19T03:13:57.990Z,1020.5
2018-07-19T03:14:23.539Z,1020.47
2018-07-19T03:14:49.103Z,1020.46
2018-07-19T03:15:14.680Z,1020.48
2018-07-19T03:15:40.251Z,1020.51
2018-07-19T03:16:05.817Z,1020.47
2018-07-19T03:16:31.387Z,1020.48
2018-07-19T03:16:56.960Z,1020.46
2018-07-19T03:17:22.537Z,1020.52
2018-07-19T03:17:48.145Z,1020.44
2018-07-19T03:18:13.703Z,1020.46
2018-07-19T03:18:39.285Z,1020.46
2018-07-19T03:19:04.844Z,1020.47
2018-07-19T03:19:30.421Z,1020.52
2018-07-19T03:19:56.011Z,1020.5
2018-07-19T03:20:21.569Z,1020.48
2018-07-19T03:20:47.139Z,1020.52
2018-07-19T03:21:12.688Z,1020.47
2018-07-19T03:21:38.247Z,1020.49
2018-07-19T03:22:03.818Z,1020.49
2018-07-19T03:22:29.392Z,1020.45
2018-07-19T03:22:54.947Z,1020.49
2018-07-19T03:23:20.545Z,1020.49
2018-07-19T03:23:46.109Z,1020.46
2018-07-19T03:24:11.685Z,1020.48
2018-07-19T03:24:37.252Z,1020.49
2018-07-19T03:25:02.831Z,1020.48
2018-07-19T03:25:28.417Z,1020.49
2018-07-19T03:25:53.981Z,1020.49
2018-07-19T03:26:19.567Z,1020.49
2018-07-19T03:26:45.147Z,1020.48
2018-07-19T03:27:10.746Z,1020.47
2018-07-19T03:27:36.305Z,1020.46
2018-07-19T03:28:01.864Z,1020.47
2018-07-19T03:28:27.463Z,1020.5
2018-07-19T03:28:53.061Z,1020.47
2018-07-19T03:29:18.639Z,1020.5
2018-07-19T03:29:44.226Z,1020.47
2018-07-19T03:30:09.793Z,1020.49
2018-07-19T03:30:35.377Z,1020.47
2018-07-19T03:31:01.035Z,1020.48
2018-07-19T03:31:26.550Z,1020.47
2018-07-19T03:31:52.110Z,1020.47
2018-07-19T03:32:17.679Z,1020.48
2018-07-19T03:32:43.239Z,1020.46
2018-07-19T03:33:08.802Z,1020.54
2018-07-19T03:33:34.363Z,1020.47
2018-07-19T03:33:59.940Z,1020.48
2018-07-19T03:34:25.517Z,1020.48
2018-07-19T03:34:51.078Z,1020.47
2018-07-19T03:35:16.644Z,1020.49
2018-07-19T03:35:42.223Z,1020.49
2018-07-19T03:36:07.789Z,1020.45
2018-07-19T03:36:33.371Z,1020.47
2018-07-19T03:36:58.933Z,1020.49
2018-07-19T03:37:24.577Z,1020.47
2018-07-19T03:37:50.173Z,1020.49
2018-07-19T03:38:15.752Z,1020.51
2018-07-19T03:38:41.313Z,1020.49
2018-07-19T03:39:06.883Z,1020.46
2018-07-19T03:39:32.439Z,1020.5
2018-07-19T03:39:58.025Z,1020.54
2018-07-19T03:40:23.574Z,1020.49
2018-07-19T03:40:49.167Z,1020.51
2018-07-19T03:41:14.756Z,1020.49
2018-07-19T03:41:40.324Z,1020.51
2018-07-19T03:42:05.906Z,1020.51
2018-07-19T03:42:31.453Z,1020.48
2018-07-19T03:42:57.050Z,1020.49
2018-07-19T03:43:22.628Z,1020.52
2018-07-19T03:43:48.217Z,1020.51
2018-07-19T03:44:13.762Z,1020.46
2018-07-19T03:44:39.331Z,1020.51
2018-07-19T03:45:04.914Z,1020.45
2018-07-19T03:45:30.480Z,1020.47
2018-07-19T03:45:56.050Z,1020.46
2018-07-19T03:46:21.598Z,1020.48
2018-07-19T03:46:47.164Z,1020.49
2018-07-19T03:47:12.729Z,1020.46
2018-07-19T03:47:38.293Z,1020.48
2018-07-19T03:48:03.859Z,1020.44
2018-07-19T03:48:29.429Z,1020.45
2018-07-19T03:48:55.017Z,1020.48
2018-07-19T03:49:20.566Z,1020.44
2018-07-19T03:49:46.164Z,1020.47
2018-07-19T03:50:11.734Z,1020.48
2018-07-19T03:50:37.394Z,1020.46
2018-07-19T03:51:02.865Z,1020.47
2018-07-19T03:51:28.444Z,1020.48
2018-07-19T03:51:54.020Z,1020.47
2018-07-19T03:52:19.574Z,1020.49
2018-07-19T03:52:45.153Z,1020.48
2018-07-19T03:53:10.750Z,1020.5
2018-07-19T03:53:36.311Z,1020.46
2018-07-19T03:54:01.891Z,1020.48
2018-07-19T03:54:27.437Z,1020.46
2018-07-19T03:54:53.031Z,1020.48
2018-07-19T03:55:18.611Z,1020.44
2018-07-19T03:55:44.174Z,1020.47
2018-07-19T03:56:09.760Z,1020.5
2018-07-19T03:56:35.327Z,1020.52
2018-07-19T03:57:00.911Z,1020.48
2018-07-19T03:57:26.471Z,1020.48
2018-07-19T03:57:52.040Z,1020.52
2018-07-19T03:58:17.645Z,1020.48
2018-07-19T03:58:43.215Z,1020.46
2018-07-19T03:59:08.796Z,1020.52
2018-07-19T03:59:34.387Z,1020.5
2018-07-19T03:59:59.955Z,1020.52
2018-07-19T04:00:25.542Z,1020.5
2018-07-19T04:00:51.087Z,1020.54
2018-07-19T04:01:16.637Z,1020.53
2018-07-19T04:01:42.238Z,1020.54
2018-07-19T04:02:07.818Z,1020.55
2018-07-19T04:02:33.408Z,1020.54
2018-07-19T04:02:58.971Z,1020.57
2018-07-19T04:03:24.545Z,1020.57
2018-07-19T04:03:50.122Z,1020.58
2018-07-19T04:04:15.708Z,1020.57
2018-07-19T04:04:41.271Z,1020.58
2018-07-19T04:05:06.853Z,1020.58
2018-07-19T04:05:32.432Z,1020.56
2018-07-19T04:05:58.010Z,1020.55
2018-07-19T04:06:23.581Z,1020.6
2018-07-19T04:06:49.129Z,1020.57
2018-07-19T04:07:14.738Z,1020.58
2018-07-19T04:07:40.299Z,1020.6
2018-07-19T04:08:05.935Z,1020.59
2018-07-19T04:08:31.501Z,1020.6
2018-07-19T04:08:57.080Z,1020.6
2018-07-19T04:09:22.651Z,1020.57
2018-07-19T04:09:48.232Z,1020.6
2018-07-19T04:10:13.828Z,1020.59
2018-07-19T04:10:39.399Z,1020.61
2018-07-19T04:11:04.988Z,1020.61
2018-07-19T04:11:30.552Z,1020.62
2018-07-19T04:11:56.128Z,1020.6
2018-07-19T04:12:21.719Z,1020.63
2018-07-19T04:12:47.286Z,1020.58
2018-07-19T04:13:12.843Z,1020.61
2018-07-19T04:13:38.405Z,1020.58
2018-07-19T04:14:03.959Z,1020.61
2018-07-19T04:14:29.542Z,1020.61
2018-07-19T04:14:55.118Z,1020.63
2018-07-19T04:15:20.685Z,1020.59
2018-07-19T04:15:46.250Z,1020.59
2018-07-19T04:16:11.822Z,1020.58
2018-07-19T04:16:37.403Z,1020.57
2018-07-19T04:17:03.033Z,1020.56
2018-07-19T04:17:28.543Z,1020.6
2018-07-19T04:17:54.105Z,1020.55
2018-07-19T04:18:19.689Z,1020.57
2018-07-19T04:18:45.245Z,1020.58
2018-07-19T04:19:10.822Z,1020.58
2018-07-19T04:19:36.399Z,1020.61
2018-07-19T04:20:01.994Z,1020.59
2018-07-19T04:20:27.544Z,1020.56
2018-07-19T04:20:53.115Z,1020.57
2018-07-19T04:21:18.697Z,1020.57
2018-07-19T04:21:44.270Z,1020.59
2018-07-19T04:22:09.834Z,1020.59
2018-07-19T04:22:35.393Z,1020.56
2018-07-19T04:23:00.987Z,1020.59
2018-07-19T04:23:26.597Z,1020.55
2018-07-19T04:23:52.175Z,1020.57
2018-07-19T04:24:17.734Z,1020.57
2018-07-19T04:24:43.314Z,1020.6
2018-07-19T04:25:08.947Z,1020.61
2018-07-19T04:25:34.442Z,1020.55
2018-07-19T04:26:00.013Z,1020.61
2018-07-19T04:26:25.565Z,1020.57
2018-07-19T04:26:51.138Z,1020.55
2018-07-19T04:27:16.715Z,1020.58
2018-07-19T04:27:42.282Z,1020.56
2018-07-19T04:28:07.843Z,1020.56
2018-07-19T04:28:33.409Z,1020.56
2018-07-19T04:28:58.989Z,1020.54
2018-07-19T04:29:24.573Z,1020.6
2018-07-19T04:29:50.137Z,1020.6
2018-07-19T04:30:15.772Z,1020.57
2018-07-19T04:30:41.332Z,1020.55
2018-07-19T04:31:06.906Z,1020.6
2018-07-19T04:31:32.478Z,1020.63
2018-07-19T04:31:58.037Z,1020.62
2018-07-19T04:32:23.649Z,1020.63
2018-07-19T04:32:49.190Z,1020.61
2018-07-19T04:33:14.754Z,1020.65
2018-07-19T04:33:40.324Z,1020.64
2018-07-19T04:34:05.912Z,1020.64
2018-07-19T04:34:31.474Z,1020.66
2018-07-19T04:34:57.039Z,1020.62
2018-07-19T04:35:22.606Z,1020.67
2018-07-19T04:35:48.211Z,1020.67
2018-07-19T04:36:13.808Z,1020.7
2018-07-19T04:36:39.370Z,1020.64
2018-07-19T04:37:04.942Z,1020.69
2018-07-19T04:37:30.499Z,1020.71
2018-07-19T04:37:56.086Z,1020.66
2018-07-19T04:38:21.814Z,1020.66
2018-07-19T04:38:47.272Z,1020.67
2018-07-19T04:39:12.841Z,1020.68
2018-07-19T04:39:38.420Z,1020.7
2018-07-19T04:40:04.016Z,1020.68
2018-07-19T04:40:29.600Z,1020.72
2018-07-19T04:40:55.174Z,1020.68
2018-07-19T04:41:20.736Z,1020.73
2018-07-19T04:41:46.313Z,1020.71
2018-07-19T04:42:11.872Z,1020.71
2018-07-19T04:42:37.442Z,1020.67
2018-07-19T04:43:03.020Z,1020.72
2018-07-19T04:43:28.605Z,1020.69
2018-07-19T04:43:54.175Z,1020.68
2018-07-19T04:44:19.726Z,1020.68
2018-07-19T04:44:45.295Z,1020.71
2018-07-19T04:45:10.864Z,1020.74
2018-07-19T04:45:36.414Z,1020.68
2018-07-19T04:46:01.994Z,1020.69
2018-07-19T04:46:27.607Z,1020.71
2018-07-19T04:46:53.201Z,1020.68
2018-07-19T04:47:18.733Z,1020.74
2018-07-19T04:47:44.319Z,1020.77
2018-07-19T04:48:09.882Z,1020.7
2018-07-19T04:48:35.479Z,1020.72
2018-07-19T04:49:01.044Z,1020.76
2018-07-19T04:49:26.611Z,1020.75
2018-07-19T04:49:52.191Z,1020.71
2018-07-19T04:50:17.743Z,1020.74
2018-07-19T04:50:43.309Z,1020.75
2018-07-19T04:51:08.886Z,1020.74
2018-07-19T04:51:34.461Z,1020.74
2018-07-19T04:52:00.049Z,1020.76
2018-07-19T04:52:25.605Z,1020.78
2018-07-19T04:52:51.167Z,1020.75
2018-07-19T04:53:16.744Z,1020.78
2018-07-19T04:53:42.313Z,1020.81
2018-07-19T04:54:07.890Z,1020.81
2018-07-19T04:54:33.509Z,1020.75
2018-07-19T04:54:59.011Z,1020.8
2018-07-19T04:55:24.565Z,1020.76
2018-07-19T04:55:50.244Z,1020.77
2018-07-19T04:56:15.863Z,1020.77
2018-07-19T04:56:41.420Z,1020.81
2018-07-19T04:57:06.986Z,1020.78
2018-07-19T04:57:32.553Z,1020.8
2018-07-19T04:57:58.145Z,1020.85
2018-07-19T04:58:23.716Z,1020.85
2018-07-19T04:58:49.290Z,1020.83
2018-07-19T04:59:14.888Z,1020.87
2018-07-19T04:59:40.470Z,1020.85
2018-07-19T05:00:06.050Z,1020.9
2018-07-19T05:00:31.623Z,1020.89
2018-07-19T05:00:57.198Z,1020.9
2018-07-19T05:01:22.758Z,1020.92
2018-07-19T05:01:48.406Z,1020.91
2018-07-19T05:02:13.956Z,1020.89
2018-07-19T05:02:39.519Z,1020.9
2018-07-19T05:03:05.090Z,1020.91
2018-07-19T05:03:30.666Z,1020.94
2018-07-19T05:03:56.258Z,1020.96
2018-07-19T05:04:21.853Z,1020.93
2018-07-19T05:04:47.410Z,1020.93
2018-07-19T05:05:12.967Z,1020.94
2018-07-19T05:05:38.527Z,1020.92
2018-07-19T05:06:04.111Z,1020.93
2018-07-19T05:06:29.685Z,1020.94
2018-07-19T05:06:55.250Z,1020.89
2018-07-19T05:07:20.832Z,1020.95
2018-07-19T05:07:46.432Z,1020.99
2018-07-19T05:08:11.984Z,1020.98
2018-07-19T05:08:37.532Z,1020.95
2018-07-19T05:09:03.105Z,1021
2018-07-19T05:09:28.677Z,1020.98
2018-07-19T05:09:54.257Z,1021.01
2018-07-19T05:10:19.824Z,1021
2018-07-19T05:10:45.392Z,1021
2018-07-19T05:11:10.966Z,1021
2018-07-19T05:11:36.559Z,1021.01